sensor_id;sensor_type;location;lat;lon;timestamp;P1;durP1;ratioP1;P2;durP2;ratioP2
19828;SDS011;10075;50.924;4.396;2023-04-03T00:02:04;15.20;;;11.87;;
19828;SDS011;10075;50.924;4.396;2023-04-03T00:04:31;17.87;;;11.63;;
19828;SDS011;10075;50.924;4.396;2023-04-03T00:06:58;15.00;;;11.03;;
19828;SDS011;10075;50.924;4.396;2023-04-03T00:09:26;15.43;;;10.83;;
19828;SDS011;10075;50.924;4.396;2023-04-03T00:11:54;13.87;;;11.47;;
19828;SDS011;10075;50.924;4.396;2023-04-03T00:14:21;15.20;;;11.20;;
19828;SDS011;10075;50.924;4.396;2023-04-03T00:16:48;17.23;;;13.30;;
19828;SDS011;10075;50.924;4.396;2023-04-03T00:19:15;21.00;;;14.03;;
19828;SDS011;10075;50.924;4.396;2023-04-03T00:21:41;19.83;;;14.70;;
19828;SDS011;10075;50.924;4.396;2023-04-03T00:24:08;16.23;;;14.43;;
19828;SDS011;10075;50.924;4.396;2023-04-03T00:26:37;22.17;;;14.37;;
19828;SDS011;10075;50.924;4.396;2023-04-03T00:29:04;19.13;;;14.53;;
19828;SDS011;10075;50.924;4.396;2023-04-03T00:31:31;17.73;;;13.33;;
19828;SDS011;10075;50.924;4.396;2023-04-03T00:33:58;18.17;;;14.17;;
19828;SDS011;10075;50.924;4.396;2023-04-03T00:36:25;20.03;;;12.90;;
19828;SDS011;10075;50.924;4.396;2023-04-03T00:38:52;15.77;;;12.80;;
19828;SDS011;10075;50.924;4.396;2023-04-03T00:41:19;16.47;;;12.53;;
19828;SDS011;10075;50.924;4.396;2023-04-03T00:43:47;14.30;;;12.43;;
19828;SDS011;10075;50.924;4.396;2023-04-03T00:46:14;13.37;;;11.70;;
19828;SDS011;10075;50.924;4.396;2023-04-03T00:48:42;14.50;;;10.97;;
19828;SDS011;10075;50.924;4.396;2023-04-03T00:51:12;15.33;;;10.73;;
19828;SDS011;10075;50.924;4.396;2023-04-03T00:53:43;18.03;;;11.23;;
19828;SDS011;10075;50.924;4.396;2023-04-03T00:56:13;17.37;;;9.43;;
19828;SDS011;10075;50.924;4.396;2023-04-03T00:58:44;11.13;;;9.30;;
19828;SDS011;10075;50.924;4.396;2023-04-03T01:01:16;16.23;;;9.43;;
19828;SDS011;10075;50.924;4.396;2023-04-03T01:03:47;10.73;;;8.90;;
19828;SDS011;10075;50.924;4.396;2023-04-03T01:06:14;12.83;;;7.73;;
19828;SDS011;10075;50.924;4.396;2023-04-03T01:08:44;11.80;;;7.90;;
19828;SDS011;10075;50.924;4.396;2023-04-03T01:11:13;12.17;;;7.80;;
19828;SDS011;10075;50.924;4.396;2023-04-03T01:13:40;9.73;;;7.10;;
19828;SDS011;10075;50.924;4.396;2023-04-03T01:16:09;11.10;;;7.33;;
19828;SDS011;10075;50.924;4.396;2023-04-03T01:18:37;10.60;;;7.50;;
19828;SDS011;10075;50.924;4.396;2023-04-03T01:24:16;16.50;;;11.60;;
19828;SDS011;10075;50.924;4.396;2023-04-03T01:26:49;17.93;;;13.17;;
19828;SDS011;10075;50.924;4.396;2023-04-03T01:29:17;19.50;;;13.60;;
19828;SDS011;10075;50.924;4.396;2023-04-03T01:31:50;15.40;;;12.90;;
19828;SDS011;10075;50.924;4.396;2023-04-03T01:34:18;17.63;;;12.77;;
19828;SDS011;10075;50.924;4.396;2023-04-03T01:36:46;16.27;;;10.07;;
19828;SDS011;10075;50.924;4.396;2023-04-03T01:39:13;11.00;;;8.93;;
19828;SDS011;10075;50.924;4.396;2023-04-03T01:41:40;10.63;;;8.60;;
19828;SDS011;10075;50.924;4.396;2023-04-03T01:44:07;13.87;;;8.57;;
19828;SDS011;10075;50.924;4.396;2023-04-03T01:46:34;11.77;;;8.67;;
19828;SDS011;10075;50.924;4.396;2023-04-03T01:49:04;11.60;;;8.27;;
19828;SDS011;10075;50.924;4.396;2023-04-03T01:51:31;13.93;;;8.90;;
19828;SDS011;10075;50.924;4.396;2023-04-03T01:53:58;12.07;;;8.43;;
19828;SDS011;10075;50.924;4.396;2023-04-03T01:56:25;12.67;;;8.37;;
19828;SDS011;10075;50.924;4.396;2023-04-03T01:58:52;9.27;;;7.07;;
19828;SDS011;10075;50.924;4.396;2023-04-03T02:01:19;11.87;;;6.67;;
19828;SDS011;10075;50.924;4.396;2023-04-03T02:03:46;7.43;;;6.27;;
19828;SDS011;10075;50.924;4.396;2023-04-03T02:06:14;13.13;;;6.43;;
19828;SDS011;10075;50.924;4.396;2023-04-03T02:08:41;8.90;;;6.40;;
19828;SDS011;10075;50.924;4.396;2023-04-03T02:11:08;11.60;;;6.90;;
19828;SDS011;10075;50.924;4.396;2023-04-03T02:13:35;9.50;;;6.30;;
19828;SDS011;10075;50.924;4.396;2023-04-03T02:16:06;9.53;;;7.00;;
19828;SDS011;10075;50.924;4.396;2023-04-03T02:18:34;12.70;;;6.67;;
19828;SDS011;10075;50.924;4.396;2023-04-03T02:21:02;11.97;;;6.13;;
19828;SDS011;10075;50.924;4.396;2023-04-03T02:23:30;10.40;;;6.50;;
19828;SDS011;10075;50.924;4.396;2023-04-03T02:26:02;9.27;;;6.53;;
19828;SDS011;10075;50.924;4.396;2023-04-03T02:28:34;9.73;;;6.13;;
19828;SDS011;10075;50.924;4.396;2023-04-03T02:31:01;13.33;;;6.97;;
19828;SDS011;10075;50.924;4.396;2023-04-03T02:33:28;12.03;;;6.70;;
19828;SDS011;10075;50.924;4.396;2023-04-03T02:35:56;13.20;;;7.40;;
19828;SDS011;10075;50.924;4.396;2023-04-03T02:38:23;10.60;;;7.13;;
19828;SDS011;10075;50.924;4.396;2023-04-03T02:40:52;9.97;;;6.30;;
19828;SDS011;10075;50.924;4.396;2023-04-03T02:43:19;13.83;;;7.47;;
19828;SDS011;10075;50.924;4.396;2023-04-03T02:45:46;11.57;;;7.13;;
19828;SDS011;10075;50.924;4.396;2023-04-03T02:48:13;9.07;;;6.50;;
19828;SDS011;10075;50.924;4.396;2023-04-03T02:50:41;13.70;;;7.00;;
19828;SDS011;10075;50.924;4.396;2023-04-03T02:53:08;9.17;;;7.13;;
19828;SDS011;10075;50.924;4.396;2023-04-03T02:55:35;13.10;;;7.70;;
19828;SDS011;10075;50.924;4.396;2023-04-03T02:58:04;9.93;;;6.70;;
19828;SDS011;10075;50.924;4.396;2023-04-03T03:00:31;9.43;;;7.07;;
19828;SDS011;10075;50.924;4.396;2023-04-03T03:02:58;12.67;;;7.53;;
19828;SDS011;10075;50.924;4.396;2023-04-03T03:05:25;15.40;;;8.03;;
19828;SDS011;10075;50.924;4.396;2023-04-03T03:07:52;10.37;;;7.93;;
19828;SDS011;10075;50.924;4.396;2023-04-03T03:10:19;11.20;;;7.80;;
19828;SDS011;10075;50.924;4.396;2023-04-03T03:12:47;11.47;;;7.90;;
19828;SDS011;10075;50.924;4.396;2023-04-03T03:15:15;13.23;;;8.50;;
19828;SDS011;10075;50.924;4.396;2023-04-03T03:17:44;11.80;;;8.77;;
19828;SDS011;10075;50.924;4.396;2023-04-03T03:20:12;12.03;;;8.13;;
19828;SDS011;10075;50.924;4.396;2023-04-03T03:22:40;10.00;;;7.73;;
19828;SDS011;10075;50.924;4.396;2023-04-03T03:25:08;11.20;;;8.17;;
19828;SDS011;10075;50.924;4.396;2023-04-03T03:27:35;13.97;;;8.40;;
19828;SDS011;10075;50.924;4.396;2023-04-03T03:30:02;10.77;;;8.87;;
19828;SDS011;10075;50.924;4.396;2023-04-03T03:32:32;12.57;;;8.40;;
19828;SDS011;10075;50.924;4.396;2023-04-03T03:34:59;11.37;;;8.47;;
19828;SDS011;10075;50.924;4.396;2023-04-03T03:37:26;11.67;;;8.40;;
19828;SDS011;10075;50.924;4.396;2023-04-03T03:39:53;11.93;;;8.43;;
19828;SDS011;10075;50.924;4.396;2023-04-03T03:42:20;12.50;;;8.17;;
19828;SDS011;10075;50.924;4.396;2023-04-03T03:44:47;14.33;;;9.37;;
19828;SDS011;10075;50.924;4.396;2023-04-03T03:47:14;10.60;;;8.50;;
19828;SDS011;10075;50.924;4.396;2023-04-03T03:49:42;10.87;;;7.80;;
19828;SDS011;10075;50.924;4.396;2023-04-03T03:52:09;16.23;;;9.70;;
19828;SDS011;10075;50.924;4.396;2023-04-03T03:54:36;13.83;;;9.17;;
19828;SDS011;10075;50.924;4.396;2023-04-03T03:57:04;13.87;;;9.30;;
19828;SDS011;10075;50.924;4.396;2023-04-03T03:59:31;12.73;;;8.83;;
19828;SDS011;10075;50.924;4.396;2023-04-03T04:01:58;11.80;;;8.73;;
19828;SDS011;10075;50.924;4.396;2023-04-03T04:04:26;17.53;;;9.77;;
19828;SDS011;10075;50.924;4.396;2023-04-03T04:06:55;14.27;;;9.97;;
19828;SDS011;10075;50.924;4.396;2023-04-03T04:09:22;16.57;;;9.90;;
19828;SDS011;10075;50.924;4.396;2023-04-03T04:11:49;15.07;;;9.90;;
19828;SDS011;10075;50.924;4.396;2023-04-03T04:14:17;13.10;;;9.60;;
19828;SDS011;10075;50.924;4.396;2023-04-03T04:16:45;16.13;;;10.10;;
19828;SDS011;10075;50.924;4.396;2023-04-03T04:19:12;13.27;;;9.67;;
19828;SDS011;10075;50.924;4.396;2023-04-03T04:21:40;16.57;;;10.00;;
19828;SDS011;10075;50.924;4.396;2023-04-03T04:24:09;12.47;;;9.97;;
19828;SDS011;10075;50.924;4.396;2023-04-03T04:26:37;14.13;;;9.63;;
19828;SDS011;10075;50.924;4.396;2023-04-03T04:29:04;14.60;;;10.10;;
19828;SDS011;10075;50.924;4.396;2023-04-03T04:31:31;16.00;;;11.10;;
19828;SDS011;10075;50.924;4.396;2023-04-03T04:33:58;18.60;;;12.07;;
19828;SDS011;10075;50.924;4.396;2023-04-03T04:36:25;14.67;;;11.73;;
19828;SDS011;10075;50.924;4.396;2023-04-03T04:38:52;21.60;;;13.00;;
19828;SDS011;10075;50.924;4.396;2023-04-03T04:41:20;23.10;;;15.10;;
19828;SDS011;10075;50.924;4.396;2023-04-03T04:43:48;22.70;;;15.47;;
19828;SDS011;10075;50.924;4.396;2023-04-03T04:46:15;27.53;;;18.50;;
19828;SDS011;10075;50.924;4.396;2023-04-03T04:48:42;21.20;;;15.47;;
19828;SDS011;10075;50.924;4.396;2023-04-03T04:51:10;20.20;;;13.63;;
19828;SDS011;10075;50.924;4.396;2023-04-03T04:53:37;21.37;;;15.00;;
19828;SDS011;10075;50.924;4.396;2023-04-03T04:56:05;27.60;;;16.63;;
19828;SDS011;10075;50.924;4.396;2023-04-03T04:58:34;25.20;;;16.40;;
19828;SDS011;10075;50.924;4.396;2023-04-03T05:01:02;25.13;;;17.03;;
19828;SDS011;10075;50.924;4.396;2023-04-03T05:03:30;26.23;;;16.83;;
19828;SDS011;10075;50.924;4.396;2023-04-03T05:05:58;24.03;;;16.83;;
19828;SDS011;10075;50.924;4.396;2023-04-03T05:08:25;19.57;;;13.63;;
19828;SDS011;10075;50.924;4.396;2023-04-03T05:10:53;16.90;;;13.07;;
19828;SDS011;10075;50.924;4.396;2023-04-03T05:13:20;16.57;;;12.60;;
19828;SDS011;10075;50.924;4.396;2023-04-03T05:15:49;16.07;;;11.97;;
19828;SDS011;10075;50.924;4.396;2023-04-03T05:18:17;18.53;;;13.30;;
19828;SDS011;10075;50.924;4.396;2023-04-03T05:20:44;20.17;;;14.70;;
19828;SDS011;10075;50.924;4.396;2023-04-03T05:23:11;18.70;;;14.80;;
19828;SDS011;10075;50.924;4.396;2023-04-03T05:25:39;20.77;;;14.33;;
19828;SDS011;10075;50.924;4.396;2023-04-03T05:28:06;22.30;;;14.00;;
19828;SDS011;10075;50.924;4.396;2023-04-03T05:30:34;21.50;;;13.27;;
19828;SDS011;10075;50.924;4.396;2023-04-03T05:33:03;18.73;;;14.00;;
19828;SDS011;10075;50.924;4.396;2023-04-03T05:35:31;19.70;;;13.07;;
19828;SDS011;10075;50.924;4.396;2023-04-03T05:38:00;16.93;;;11.67;;
19828;SDS011;10075;50.924;4.396;2023-04-03T05:40:27;17.43;;;12.23;;
19828;SDS011;10075;50.924;4.396;2023-04-03T05:42:55;22.00;;;13.93;;
19828;SDS011;10075;50.924;4.396;2023-04-03T05:45:22;20.90;;;13.70;;
19828;SDS011;10075;50.924;4.396;2023-04-03T05:47:49;19.70;;;13.60;;
19828;SDS011;10075;50.924;4.396;2023-04-03T05:50:19;17.83;;;13.03;;
19828;SDS011;10075;50.924;4.396;2023-04-03T05:52:47;20.00;;;13.67;;
19828;SDS011;10075;50.924;4.396;2023-04-03T05:55:17;17.77;;;12.20;;
19828;SDS011;10075;50.924;4.396;2023-04-03T05:57:45;15.90;;;12.07;;
19828;SDS011;10075;50.924;4.396;2023-04-03T06:00:13;17.80;;;12.03;;
19828;SDS011;10075;50.924;4.396;2023-04-03T06:02:41;16.67;;;12.17;;
19828;SDS011;10075;50.924;4.396;2023-04-03T06:05:09;17.07;;;13.30;;
19828;SDS011;10075;50.924;4.396;2023-04-03T06:07:39;21.50;;;12.23;;
19828;SDS011;10075;50.924;4.396;2023-04-03T06:10:06;18.37;;;12.80;;
19828;SDS011;10075;50.924;4.396;2023-04-03T06:12:34;16.77;;;12.40;;
19828;SDS011;10075;50.924;4.396;2023-04-03T06:15:02;17.70;;;12.17;;
19828;SDS011;10075;50.924;4.396;2023-04-03T06:17:29;19.40;;;11.93;;
19828;SDS011;10075;50.924;4.396;2023-04-03T06:19:56;17.13;;;12.03;;
19828;SDS011;10075;50.924;4.396;2023-04-03T06:22:23;16.90;;;11.77;;
19828;SDS011;10075;50.924;4.396;2023-04-03T06:24:59;15.07;;;11.03;;
19828;SDS011;10075;50.924;4.396;2023-04-03T06:27:26;16.87;;;11.40;;
19828;SDS011;10075;50.924;4.396;2023-04-03T06:29:53;17.93;;;11.67;;
19828;SDS011;10075;50.924;4.396;2023-04-03T06:32:20;14.87;;;11.13;;
19828;SDS011;10075;50.924;4.396;2023-04-03T06:34:47;16.70;;;11.67;;
19828;SDS011;10075;50.924;4.396;2023-04-03T06:37:15;15.47;;;11.47;;
19828;SDS011;10075;50.924;4.396;2023-04-03T06:39:43;17.90;;;11.60;;
19828;SDS011;10075;50.924;4.396;2023-04-03T06:42:12;17.93;;;12.33;;
19828;SDS011;10075;50.924;4.396;2023-04-03T06:44:39;21.40;;;12.60;;
19828;SDS011;10075;50.924;4.396;2023-04-03T06:47:06;23.57;;;12.37;;
19828;SDS011;10075;50.924;4.396;2023-04-03T06:49:35;20.20;;;12.70;;
19828;SDS011;10075;50.924;4.396;2023-04-03T06:52:02;20.17;;;11.90;;
19828;SDS011;10075;50.924;4.396;2023-04-03T06:54:30;18.53;;;11.53;;
19828;SDS011;10075;50.924;4.396;2023-04-03T06:56:58;21.80;;;11.87;;
19828;SDS011;10075;50.924;4.396;2023-04-03T06:59:26;17.13;;;10.33;;
19828;SDS011;10075;50.924;4.396;2023-04-03T07:01:53;14.70;;;10.70;;
19828;SDS011;10075;50.924;4.396;2023-04-03T07:04:20;13.93;;;10.20;;
19828;SDS011;10075;50.924;4.396;2023-04-03T07:06:47;17.03;;;9.27;;
19828;SDS011;10075;50.924;4.396;2023-04-03T07:09:14;15.47;;;10.00;;
19828;SDS011;10075;50.924;4.396;2023-04-03T07:11:41;16.43;;;10.13;;
19828;SDS011;10075;50.924;4.396;2023-04-03T07:14:08;12.50;;;9.47;;
19828;SDS011;10075;50.924;4.396;2023-04-03T07:16:36;14.27;;;9.03;;
19828;SDS011;10075;50.924;4.396;2023-04-03T07:19:03;11.70;;;8.97;;
19828;SDS011;10075;50.924;4.396;2023-04-03T07:21:30;12.03;;;8.80;;
19828;SDS011;10075;50.924;4.396;2023-04-03T07:23:57;10.93;;;8.77;;
19828;SDS011;10075;50.924;4.396;2023-04-03T07:26:24;10.17;;;8.10;;
19828;SDS011;10075;50.924;4.396;2023-04-03T07:28:51;11.93;;;8.67;;
19828;SDS011;10075;50.924;4.396;2023-04-03T07:31:18;11.87;;;8.53;;
19828;SDS011;10075;50.924;4.396;2023-04-03T07:33:47;16.00;;;8.43;;
19828;SDS011;10075;50.924;4.396;2023-04-03T07:36:15;13.67;;;8.03;;
19828;SDS011;10075;50.924;4.396;2023-04-03T07:38:44;12.73;;;8.33;;
19828;SDS011;10075;50.924;4.396;2023-04-03T07:41:11;9.73;;;7.97;;
19828;SDS011;10075;50.924;4.396;2023-04-03T07:43:42;12.33;;;7.27;;
19828;SDS011;10075;50.924;4.396;2023-04-03T07:46:10;9.87;;;7.90;;
19828;SDS011;10075;50.924;4.396;2023-04-03T07:48:37;10.37;;;8.03;;
19828;SDS011;10075;50.924;4.396;2023-04-03T07:51:06;12.13;;;7.17;;
19828;SDS011;10075;50.924;4.396;2023-04-03T07:53:33;13.00;;;7.33;;
19828;SDS011;10075;50.924;4.396;2023-04-03T07:56:00;12.27;;;7.30;;
19828;SDS011;10075;50.924;4.396;2023-04-03T07:58:29;10.30;;;7.07;;
19828;SDS011;10075;50.924;4.396;2023-04-03T08:00:56;10.27;;;6.93;;
19828;SDS011;10075;50.924;4.396;2023-04-03T08:03:23;11.60;;;6.93;;
19828;SDS011;10075;50.924;4.396;2023-04-03T08:05:50;12.40;;;7.30;;
19828;SDS011;10075;50.924;4.396;2023-04-03T08:08:21;12.57;;;6.93;;
19828;SDS011;10075;50.924;4.396;2023-04-03T08:10:49;9.87;;;6.27;;
19828;SDS011;10075;50.924;4.396;2023-04-03T08:13:17;13.07;;;7.30;;
19828;SDS011;10075;50.924;4.396;2023-04-03T08:15:45;10.83;;;5.50;;
19828;SDS011;10075;50.924;4.396;2023-04-03T08:18:12;11.67;;;6.20;;
19828;SDS011;10075;50.924;4.396;2023-04-03T08:20:39;12.97;;;6.87;;
19828;SDS011;10075;50.924;4.396;2023-04-03T08:23:06;15.03;;;5.90;;
19828;SDS011;10075;50.924;4.396;2023-04-03T08:25:37;14.43;;;6.03;;
19828;SDS011;10075;50.924;4.396;2023-04-03T08:28:04;10.43;;;6.70;;
19828;SDS011;10075;50.924;4.396;2023-04-03T08:30:31;10.33;;;6.03;;
19828;SDS011;10075;50.924;4.396;2023-04-03T08:32:59;11.13;;;5.77;;
19828;SDS011;10075;50.924;4.396;2023-04-03T08:35:27;8.03;;;4.63;;
19828;SDS011;10075;50.924;4.396;2023-04-03T08:37:54;9.07;;;5.17;;
19828;SDS011;10075;50.924;4.396;2023-04-03T08:40:21;7.87;;;4.60;;
19828;SDS011;10075;50.924;4.396;2023-04-03T08:42:53;11.67;;;4.93;;
19828;SDS011;10075;50.924;4.396;2023-04-03T08:45:34;6.67;;;4.43;;
19828;SDS011;10075;50.924;4.396;2023-04-03T08:48:11;9.60;;;4.80;;
19828;SDS011;10075;50.924;4.396;2023-04-03T08:50:42;5.73;;;4.17;;
19828;SDS011;10075;50.924;4.396;2023-04-03T08:53:12;7.10;;;4.37;;
19828;SDS011;10075;50.924;4.396;2023-04-03T08:55:42;7.93;;;4.20;;
19828;SDS011;10075;50.924;4.396;2023-04-03T08:58:12;6.63;;;4.40;;
19828;SDS011;10075;50.924;4.396;2023-04-03T09:00:44;7.83;;;4.10;;
19828;SDS011;10075;50.924;4.396;2023-04-03T09:03:14;6.90;;;3.77;;
19828;SDS011;10075;50.924;4.396;2023-04-03T09:05:44;6.77;;;3.47;;
19828;SDS011;10075;50.924;4.396;2023-04-03T09:08:20;6.07;;;3.50;;
19828;SDS011;10075;50.924;4.396;2023-04-03T09:10:52;6.00;;;3.43;;
19828;SDS011;10075;50.924;4.396;2023-04-03T09:13:29;7.17;;;3.67;;
19828;SDS011;10075;50.924;4.396;2023-04-03T09:15:59;6.40;;;3.50;;
19828;SDS011;10075;50.924;4.396;2023-04-03T09:18:33;6.10;;;3.80;;
19828;SDS011;10075;50.924;4.396;2023-04-03T09:21:07;7.80;;;3.83;;
19828;SDS011;10075;50.924;4.396;2023-04-03T09:23:41;6.93;;;3.00;;
19828;SDS011;10075;50.924;4.396;2023-04-03T09:26:12;9.67;;;2.90;;
19828;SDS011;10075;50.924;4.396;2023-04-03T09:28:45;7.63;;;2.60;;
19828;SDS011;10075;50.924;4.396;2023-04-03T09:31:18;5.40;;;2.73;;
19828;SDS011;10075;50.924;4.396;2023-04-03T09:33:47;6.70;;;2.43;;
19828;SDS011;10075;50.924;4.396;2023-04-03T09:39:07;3.83;;;1.90;;
19828;SDS011;10075;50.924;4.396;2023-04-03T09:41:37;5.93;;;2.57;;
19828;SDS011;10075;50.924;4.396;2023-04-03T09:44:17;6.60;;;2.50;;
19828;SDS011;10075;50.924;4.396;2023-04-03T09:46:47;4.93;;;2.07;;
19828;SDS011;10075;50.924;4.396;2023-04-03T09:49:14;7.40;;;2.80;;
19828;SDS011;10075;50.924;4.396;2023-04-03T09:51:42;7.23;;;2.90;;
19828;SDS011;10075;50.924;4.396;2023-04-03T09:57:06;4.57;;;2.07;;
19828;SDS011;10075;50.924;4.396;2023-04-03T09:59:39;4.43;;;2.23;;
19828;SDS011;10075;50.924;4.396;2023-04-03T10:02:22;11.27;;;2.20;;
19828;SDS011;10075;50.924;4.396;2023-04-03T10:04:58;5.17;;;1.97;;
19828;SDS011;10075;50.924;4.396;2023-04-03T10:07:26;6.43;;;2.60;;
19828;SDS011;10075;50.924;4.396;2023-04-03T10:09:56;4.17;;;2.10;;
19828;SDS011;10075;50.924;4.396;2023-04-03T10:12:23;6.17;;;2.20;;
19828;SDS011;10075;50.924;4.396;2023-04-03T10:14:56;8.33;;;2.37;;
19828;SDS011;10075;50.924;4.396;2023-04-03T10:17:28;4.60;;;2.10;;
19828;SDS011;10075;50.924;4.396;2023-04-03T10:20:06;4.50;;;1.90;;
19828;SDS011;10075;50.924;4.396;2023-04-03T10:22:45;6.07;;;2.07;;
19828;SDS011;10075;50.924;4.396;2023-04-03T10:25:20;3.90;;;2.00;;
19828;SDS011;10075;50.924;4.396;2023-04-03T10:27:53;3.93;;;2.07;;
19828;SDS011;10075;50.924;4.396;2023-04-03T10:30:31;4.37;;;1.80;;
19828;SDS011;10075;50.924;4.396;2023-04-03T10:33:08;7.77;;;2.13;;
19828;SDS011;10075;50.924;4.396;2023-04-03T10:35:48;4.37;;;2.07;;
19828;SDS011;10075;50.924;4.396;2023-04-03T10:38:23;5.97;;;2.27;;
19828;SDS011;10075;50.924;4.396;2023-04-03T10:40:59;3.77;;;1.70;;
19828;SDS011;10075;50.924;4.396;2023-04-03T10:43:33;4.63;;;1.90;;
19828;SDS011;10075;50.924;4.396;2023-04-03T10:46:06;5.30;;;2.13;;
19828;SDS011;10075;50.924;4.396;2023-04-03T10:48:48;4.90;;;2.17;;
19828;SDS011;10075;50.924;4.396;2023-04-03T10:51:23;3.00;;;1.93;;
19828;SDS011;10075;50.924;4.396;2023-04-03T10:54:00;5.30;;;2.23;;
19828;SDS011;10075;50.924;4.396;2023-04-03T10:56:34;4.80;;;2.03;;
19828;SDS011;10075;50.924;4.396;2023-04-03T10:59:12;4.47;;;1.63;;
19828;SDS011;10075;50.924;4.396;2023-04-03T11:01:47;4.90;;;1.63;;
19828;SDS011;10075;50.924;4.396;2023-04-03T11:04:17;3.00;;;1.50;;
19828;SDS011;10075;50.924;4.396;2023-04-03T11:06:47;4.03;;;1.53;;
19828;SDS011;10075;50.924;4.396;2023-04-03T11:09:22;4.93;;;1.77;;
19828;SDS011;10075;50.924;4.396;2023-04-03T11:11:53;4.90;;;1.57;;
19828;SDS011;10075;50.924;4.396;2023-04-03T11:14:25;4.70;;;1.57;;
19828;SDS011;10075;50.924;4.396;2023-04-03T11:16:59;3.67;;;1.60;;
19828;SDS011;10075;50.924;4.396;2023-04-03T11:19:34;3.57;;;1.47;;
19828;SDS011;10075;50.924;4.396;2023-04-03T11:22:08;3.87;;;1.47;;
19828;SDS011;10075;50.924;4.396;2023-04-03T11:24:43;4.37;;;1.60;;
19828;SDS011;10075;50.924;4.396;2023-04-03T11:27:19;4.73;;;1.60;;
19828;SDS011;10075;50.924;4.396;2023-04-03T11:29:50;4.60;;;1.43;;
19828;SDS011;10075;50.924;4.396;2023-04-03T11:32:37;3.93;;;1.40;;
19828;SDS011;10075;50.924;4.396;2023-04-03T11:35:21;3.67;;;1.40;;
19828;SDS011;10075;50.924;4.396;2023-04-03T11:37:52;4.53;;;1.50;;
19828;SDS011;10075;50.924;4.396;2023-04-03T11:40:21;6.30;;;1.50;;
19828;SDS011;10075;50.924;4.396;2023-04-03T11:42:52;2.47;;;1.30;;
19828;SDS011;10075;50.924;4.396;2023-04-03T11:45:27;4.93;;;1.90;;
19828;SDS011;10075;50.924;4.396;2023-04-03T11:48:01;3.27;;;1.70;;
19828;SDS011;10075;50.924;4.396;2023-04-03T11:53:29;4.33;;;1.70;;
19828;SDS011;10075;50.924;4.396;2023-04-03T11:56:02;3.63;;;1.53;;
19828;SDS011;10075;50.924;4.396;2023-04-03T11:58:31;4.30;;;1.83;;
19828;SDS011;10075;50.924;4.396;2023-04-03T12:01:00;5.27;;;1.63;;
19828;SDS011;10075;50.924;4.396;2023-04-03T12:06:50;3.77;;;1.80;;
19828;SDS011;10075;50.924;4.396;2023-04-03T12:09:34;4.80;;;1.70;;
19828;SDS011;10075;50.924;4.396;2023-04-03T12:12:38;3.77;;;1.47;;
19828;SDS011;10075;50.924;4.396;2023-04-03T12:15:19;3.13;;;1.60;;
19828;SDS011;10075;50.924;4.396;2023-04-03T12:17:49;3.90;;;1.47;;
19828;SDS011;10075;50.924;4.396;2023-04-03T12:23:26;3.77;;;1.30;;
19828;SDS011;10075;50.924;4.396;2023-04-03T12:26:04;6.57;;;1.43;;
19828;SDS011;10075;50.924;4.396;2023-04-03T12:28:46;4.13;;;1.73;;
19828;SDS011;10075;50.924;4.396;2023-04-03T12:31:15;5.47;;;1.67;;
19828;SDS011;10075;50.924;4.396;2023-04-03T12:33:48;4.23;;;1.80;;
19828;SDS011;10075;50.924;4.396;2023-04-03T12:36:34;2.93;;;1.20;;
19828;SDS011;10075;50.924;4.396;2023-04-03T12:39:20;3.03;;;1.30;;
19828;SDS011;10075;50.924;4.396;2023-04-03T12:42:04;3.67;;;1.27;;
19828;SDS011;10075;50.924;4.396;2023-04-03T12:44:54;3.33;;;1.73;;
19828;SDS011;10075;50.924;4.396;2023-04-03T12:47:28;7.33;;;1.63;;
19828;SDS011;10075;50.924;4.396;2023-04-03T12:50:02;3.17;;;1.37;;
19828;SDS011;10075;50.924;4.396;2023-04-03T12:52:44;4.23;;;1.30;;
19828;SDS011;10075;50.924;4.396;2023-04-03T12:55:16;3.33;;;1.20;;
19828;SDS011;10075;50.924;4.396;2023-04-03T12:57:45;2.63;;;1.23;;
19828;SDS011;10075;50.924;4.396;2023-04-03T13:00:20;3.73;;;1.40;;
19828;SDS011;10075;50.924;4.396;2023-04-03T13:02:49;2.80;;;1.43;;
19828;SDS011;10075;50.924;4.396;2023-04-03T13:05:16;4.07;;;1.40;;
19828;SDS011;10075;50.924;4.396;2023-04-03T13:07:47;3.43;;;1.50;;
19828;SDS011;10075;50.924;4.396;2023-04-03T13:10:17;3.80;;;1.27;;
19828;SDS011;10075;50.924;4.396;2023-04-03T13:12:46;10.00;;;1.50;;
19828;SDS011;10075;50.924;4.396;2023-04-03T13:15:15;4.47;;;1.50;;
19828;SDS011;10075;50.924;4.396;2023-04-03T13:17:45;4.90;;;1.30;;
19828;SDS011;10075;50.924;4.396;2023-04-03T13:20:14;4.33;;;1.40;;
19828;SDS011;10075;50.924;4.396;2023-04-03T13:22:48;3.03;;;1.30;;
19828;SDS011;10075;50.924;4.396;2023-04-03T13:25:24;2.40;;;1.20;;
19828;SDS011;10075;50.924;4.396;2023-04-03T13:27:53;4.77;;;1.43;;
19828;SDS011;10075;50.924;4.396;2023-04-03T13:30:23;5.17;;;1.73;;
19828;SDS011;10075;50.924;4.396;2023-04-03T13:32:53;6.23;;;1.70;;
19828;SDS011;10075;50.924;4.396;2023-04-03T13:35:26;4.63;;;1.47;;
19828;SDS011;10075;50.924;4.396;2023-04-03T13:37:59;4.43;;;1.23;;
19828;SDS011;10075;50.924;4.396;2023-04-03T13:40:29;5.37;;;1.63;;
19828;SDS011;10075;50.924;4.396;2023-04-03T13:43:01;2.90;;;1.40;;
19828;SDS011;10075;50.924;4.396;2023-04-03T13:45:31;1.67;;;1.20;;
19828;SDS011;10075;50.924;4.396;2023-04-03T13:48:08;5.47;;;1.80;;
19828;SDS011;10075;50.924;4.396;2023-04-03T13:50:55;4.50;;;1.47;;
19828;SDS011;10075;50.924;4.396;2023-04-03T13:53:24;4.70;;;1.57;;
19828;SDS011;10075;50.924;4.396;2023-04-03T13:56:05;4.97;;;1.43;;
19828;SDS011;10075;50.924;4.396;2023-04-03T13:58:34;5.13;;;1.83;;
19828;SDS011;10075;50.924;4.396;2023-04-03T14:01:07;9.20;;;1.60;;
19828;SDS011;10075;50.924;4.396;2023-04-03T14:03:39;3.97;;;1.40;;
19828;SDS011;10075;50.924;4.396;2023-04-03T14:06:11;3.20;;;1.43;;
19828;SDS011;10075;50.924;4.396;2023-04-03T14:08:40;2.57;;;1.60;;
19828;SDS011;10075;50.924;4.396;2023-04-03T14:11:13;4.43;;;1.40;;
19828;SDS011;10075;50.924;4.396;2023-04-03T14:13:41;5.60;;;1.50;;
19828;SDS011;10075;50.924;4.396;2023-04-03T14:16:11;3.27;;;1.30;;
19828;SDS011;10075;50.924;4.396;2023-04-03T14:18:41;5.00;;;1.50;;
19828;SDS011;10075;50.924;4.396;2023-04-03T14:21:09;2.83;;;1.33;;
19828;SDS011;10075;50.924;4.396;2023-04-03T14:23:37;5.43;;;1.47;;
19828;SDS011;10075;50.924;4.396;2023-04-03T14:26:05;2.97;;;1.30;;
19828;SDS011;10075;50.924;4.396;2023-04-03T14:28:38;7.07;;;1.17;;
19828;SDS011;10075;50.924;4.396;2023-04-03T14:31:06;2.77;;;1.50;;
19828;SDS011;10075;50.924;4.396;2023-04-03T14:33:33;4.57;;;1.60;;
19828;SDS011;10075;50.924;4.396;2023-04-03T14:36:04;3.90;;;1.60;;
19828;SDS011;10075;50.924;4.396;2023-04-03T14:38:37;4.43;;;1.50;;
19828;SDS011;10075;50.924;4.396;2023-04-03T14:41:07;1.90;;;1.20;;
19828;SDS011;10075;50.924;4.396;2023-04-03T14:43:39;3.10;;;1.30;;
19828;SDS011;10075;50.924;4.396;2023-04-03T14:46:10;2.67;;;1.40;;
19828;SDS011;10075;50.924;4.396;2023-04-03T14:48:40;4.50;;;1.50;;
19828;SDS011;10075;50.924;4.396;2023-04-03T14:51:09;3.95;;;1.60;;
19828;SDS011;10075;50.924;4.396;2023-04-03T14:53:39;2.83;;;1.60;;
19828;SDS011;10075;50.924;4.396;2023-04-03T14:56:12;3.50;;;1.33;;
19828;SDS011;10075;50.924;4.396;2023-04-03T14:58:42;1.77;;;1.30;;
19828;SDS011;10075;50.924;4.396;2023-04-03T15:01:10;2.65;;;1.50;;
19828;SDS011;10075;50.924;4.396;2023-04-03T15:03:39;6.43;;;1.58;;
19828;SDS011;10075;50.924;4.396;2023-04-03T15:06:08;4.25;;;1.65;;
19828;SDS011;10075;50.924;4.396;2023-04-03T15:08:36;3.17;;;1.52;;
19828;SDS011;10075;50.924;4.396;2023-04-03T15:11:06;3.70;;;1.45;;